Time;durP1;ratioP1;P1;durP2;ratioP2;P2;SDS_P1;SDS_P2;PMS_P1;PMS_P2;Temp;Humidity;BMP_temperature;BMP_pressure;BME280_temperature;BME280_humidity;BME280_pressure;Samples;Min_cycle;Max_cycle;Signal;HPM_P1;HPM_P2
2024/03/02 00:00:13;;;;;;;14.97;13.53;;;;;;;11.17;69.62;99851.25;5052316;28;20213;-80
2024/03/02 00:02:41;;;;;;;14.97;13.47;;;;;;;11.18;69.62;99847.75;5047064;28;20224;-79
2024/03/02 00:05:07;;;;;;;15.80;14.50;;;;;;;11.17;69.58;99864.31;5046722;28;20775;-80
2024/03/02 00:07:34;;;;;;;15.80;14.40;;;;;;;11.14;69.86;99851.34;5045459;28;20205;-81
2024/03/02 00:10:07;;;;;;;15.57;14.30;;;;;;;11.04;70.00;99860.34;5048246;28;20205;-80
2024/03/02 00:12:34;;;;;;;16.03;14.50;;;;;;;11.09;70.32;99846.25;5048347;28;20921;-80
2024/03/02 00:15:02;;;;;;;17.07;14.57;;;;;;;11.15;70.02;99837.38;5046954;28;20734;-80
2024/03/02 00:17:30;;;;;;;18.87;15.20;;;;;;;11.02;70.48;99841.25;5046429;28;20221;-80
2024/03/02 00:19:56;;;;;;;16.50;15.00;;;;;;;11.08;69.96;99836.72;5045910;28;20745;-80
2024/03/02 00:22:23;;;;;;;16.27;14.77;;;;;;;11.04;70.28;99831.63;5047627;28;20619;-80
2024/03/02 00:24:49;;;;;;;16.37;14.77;;;;;;;11.08;70.48;99830.63;5047915;28;20222;-80
2024/03/02 00:27:20;;;;;;;16.67;15.20;;;;;;;11.01;70.43;99829.97;5045849;28;20203;-78
2024/03/02 00:29:46;;;;;;;16.43;15.00;;;;;;;11.03;70.95;99822.94;5051744;28;20201;-79
2024/03/02 00:32:17;;;;;;;16.53;15.03;;;;;;;11.06;70.95;99814.13;5045730;28;20884;-79
2024/03/02 00:34:43;;;;;;;18.47;16.80;;;;;;;10.93;70.81;99811.06;5045696;28;20217;-80
2024/03/02 00:37:10;;;;;;;17.13;15.63;;;;;;;11.02;71.18;99807.31;5045821;28;20678;-79
2024/03/02 00:39:37;;;;;;;17.43;15.83;;;;;;;11.05;70.89;99807.22;5047288;28;20262;-80
2024/03/02 00:42:03;;;;;;;17.47;15.67;;;;;;;11.00;71.27;99803.88;5050235;28;20257;-80
2024/03/02 00:44:35;;;;;;;16.97;15.37;;;;;;;11.04;71.78;99801.16;5045720;28;20228;-75
2024/03/02 00:47:03;;;;;;;18.00;16.33;;;;;;;11.03;71.16;99796.81;5046749;28;20225;-80
2024/03/02 00:49:29;;;;;;;18.50;15.97;;;;;;;11.01;71.58;99788.19;5053727;28;20259;-80
2024/03/02 00:51:56;;;;;;;17.27;15.70;;;;;;;11.00;71.98;99785.59;5056857;28;20218;-80
2024/03/02 00:54:24;;;;;;;17.17;15.37;;;;;;;10.97;72.05;99780.50;5057129;28;20287;-80
2024/03/02 00:56:51;;;;;;;16.83;15.33;;;;;;;10.95;72.27;99777.94;5056362;28;20863;-80
2024/03/02 00:59:17;;;;;;;16.83;15.23;;;;;;;10.95;72.46;99775.31;5071007;28;20226;-80
2024/03/02 01:01:45;;;;;;;15.93;14.43;;;;;;;10.97;72.77;99757.84;5077852;28;20268;-80
2024/03/02 01:04:13;;;;;;;15.40;14.00;;;;;;;10.92;72.82;99749.28;5076831;28;20577;-81
2024/03/02 01:06:40;;;;;;;16.93;15.13;;;;;;;10.91;73.11;99742.38;5076152;28;20700;-81
2024/03/02 01:09:07;;;;;;;16.47;14.97;;;;;;;10.85;73.33;99739.97;5076892;28;20231;-80
2024/03/02 01:11:33;;;;;;;18.93;16.60;;;;;;;10.73;72.91;99741.19;5077297;28;20211;-80
2024/03/02 01:13:59;;;;;;;18.87;16.70;;;;;;;10.71;73.24;99743.00;5076610;28;20241;-80
2024/03/02 01:16:26;;;;;;;18.07;16.27;;;;;;;10.71;73.47;99740.38;5077955;28;20282;-79
2024/03/02 01:18:53;;;;;;;18.23;16.00;;;;;;;10.71;73.92;99738.63;5077163;28;20229;-80
2024/03/02 01:21:20;;;;;;;20.30;17.67;;;;;;;10.68;73.81;99728.28;5076668;28;20211;-80
2024/03/02 01:23:46;;;;;;;18.63;16.87;;;;;;;10.71;73.42;99722.94;5077695;28;20256;-80
2024/03/02 01:26:12;;;;;;;18.53;16.73;;;;;;;10.65;73.93;99725.75;5077621;28;20235;-80
2024/03/02 01:28:39;;;;;;;19.07;17.23;;;;;;;10.68;73.87;99723.06;5074563;28;20199;-80
2024/03/02 01:31:05;;;;;;;18.63;17.00;;;;;;;10.68;73.90;99716.97;5077203;28;20233;-80
2024/03/02 01:33:30;;;;;;;18.83;17.20;;;;;;;10.65;73.62;99722.31;5077047;28;20210;-80
2024/03/02 01:35:58;;;;;;;17.93;16.23;;;;;;;10.59;74.57;99712.06;5077403;28;20263;-80
2024/03/02 01:38:24;;;;;;;18.37;16.67;;;;;;;10.65;74.59;99706.66;5075780;28;20222;-80
2024/03/02 01:40:51;;;;;;;17.93;16.33;;;;;;;10.52;74.18;99709.63;5075679;28;20208;-79
2024/03/02 01:43:18;;;;;;;17.47;15.87;;;;;;;10.53;73.78;99706.09;5075868;28;20211;-80
2024/03/02 01:45:44;;;;;;;18.47;16.67;;;;;;;10.57;74.32;99704.28;5075145;28;20252;-77
2024/03/02 01:48:11;;;;;;;17.97;16.37;;;;;;;10.51;73.69;99705.31;5076152;28;20205;-80
2024/03/02 01:50:37;;;;;;;18.57;16.77;;;;;;;10.56;73.98;99719.97;5076475;28;20209;-80
2024/03/02 01:53:05;;;;;;;17.77;16.00;;;;;;;10.61;73.08;99729.38;5077229;28;20208;-80
2024/03/02 01:55:32;;;;;;;17.10;15.40;;;;;;;10.60;73.24;99726.78;5076520;28;20274;-80
2024/03/02 01:57:59;;;;;;;16.87;15.20;;;;;;;10.66;73.83;99717.03;5073774;28;20311;-79
2024/03/02 02:00:26;;;;;;;17.83;16.23;;;;;;;10.67;73.80;99703.06;5069300;28;20257;-80
2024/03/02 02:02:53;;;;;;;16.10;14.67;;;;;;;10.70;73.62;99708.22;5056506;28;20205;-80
2024/03/02 02:05:19;;;;;;;16.97;15.27;;;;;;;10.72;73.97;99703.78;5056495;28;20257;-80
2024/03/02 02:07:46;;;;;;;17.57;15.83;;;;;;;10.74;73.38;99698.50;5056311;28;20210;-77
2024/03/02 02:10:14;;;;;;;17.83;16.23;;;;;;;10.74;73.84;99701.13;5055555;28;20232;-80
2024/03/02 02:12:40;;;;;;;16.17;14.67;;;;;;;10.75;74.08;99699.38;5055345;28;20203;-80
2024/03/02 02:15:22;;;;;;;15.70;14.23;;;;;;;10.73;74.38;99686.38;5055805;28;20295;-77
2024/03/02 02:17:49;;;;;;;16.37;14.67;;;;;;;10.65;74.63;99681.38;5055239;28;20212;-80
2024/03/02 02:20:15;;;;;;;17.50;15.23;;;;;;;10.48;74.64;99676.69;5055718;28;20207;-80
2024/03/02 02:22:54;;;;;;;16.33;14.63;;;;;;;10.39;75.06;99676.13;5056808;28;20210;-80
2024/03/02 02:25:20;;;;;;;15.53;14.03;;;;;;;10.41;74.95;99659.53;5056018;28;20705;-80
2024/03/02 02:27:47;;;;;;;15.17;13.67;;;;;;;10.45;75.14;99650.69;5056839;28;20209;-80
2024/03/02 02:30:14;;;;;;;15.30;13.93;;;;;;;10.47;75.00;99648.91;5075593;28;20943;-80
2024/03/02 02:32:40;;;;;;;15.97;14.40;;;;;;;10.51;75.22;99644.44;5075626;28;20205;-80
2024/03/02 02:35:08;;;;;;;15.60;14.20;;;;;;;10.50;74.86;99643.59;5075540;28;20229;-80
2024/03/02 02:37:34;;;;;;;16.07;14.47;;;;;;;10.51;75.08;99647.91;5074532;28;20204;-80
2024/03/02 02:40:04;;;;;;;16.43;14.70;;;;;;;10.49;74.88;99646.25;5075874;28;20300;-80
2024/03/02 02:42:31;;;;;;;16.97;15.47;;;;;;;10.46;74.75;99648.94;5075465;28;20667;-80
2024/03/02 02:44:57;;;;;;;14.97;13.63;;;;;;;10.42;74.78;99653.38;5075689;28;20233;-80
2024/03/02 02:47:23;;;;;;;17.47;14.83;;;;;;;10.43;75.03;99646.44;5074744;28;20201;-80
2024/03/02 02:49:50;;;;;;;15.47;14.07;;;;;;;10.41;75.00;99643.88;5075369;28;20207;-80
2024/03/02 02:52:16;;;;;;;14.90;13.53;;;;;;;10.39;75.09;99639.63;5076988;28;20210;-80
2024/03/02 02:54:42;;;;;;;15.73;14.30;;;;;;;10.39;75.42;99632.63;5075199;28;20650;-80
2024/03/02 02:57:10;;;;;;;15.90;14.50;;;;;;;10.39;75.39;99639.63;5075173;28;20262;-80
2024/03/02 02:59:36;;;;;;;15.20;13.67;;;;;;;10.39;75.48;99634.41;5071612;28;20225;-81
2024/03/02 03:02:03;;;;;;;14.27;12.87;;;;;;;10.27;75.54;99627.78;5076364;28;20201;-80
2024/03/02 03:04:29;;;;;;;15.50;13.90;;;;;;;10.29;75.66;99616.38;5075463;28;20224;-80
2024/03/02 03:06:56;;;;;;;14.87;13.53;;;;;;;10.29;75.67;99613.78;5074947;28;20212;-81
2024/03/02 03:09:22;;;;;;;15.37;13.80;;;;;;;10.16;75.46;99612.44;5074444;28;20206;-81
2024/03/02 03:11:48;;;;;;;16.43;14.67;;;;;;;10.23;75.87;99600.91;5075086;28;20209;-78
2024/03/02 03:14:16;;;;;;;16.43;14.70;;;;;;;10.24;75.88;99607.81;5076101;28;20226;-81
2024/03/02 03:16:42;;;;;;;17.20;14.27;;;;;;;10.17;75.72;99608.94;5074685;28;20268;-81
2024/03/02 03:19:09;;;;;;;16.30;14.80;;;;;;;10.08;75.25;99614.44;5075591;28;20580;-81
2024/03/02 03:21:36;;;;;;;16.47;14.73;;;;;;;10.16;75.73;99602.00;5075127;28;20209;-81
2024/03/02 03:24:02;;;;;;;15.13;13.70;;;;;;;10.23;75.50;99607.91;5075556;28;20201;-80
2024/03/02 03:26:29;;;;;;;15.40;13.70;;;;;;;10.24;75.40;99610.44;5074176;28;20744;-81
2024/03/02 03:28:55;;;;;;;13.70;12.47;;;;;;;10.23;75.56;99607.91;5070442;28;20198;-80
2024/03/02 03:31:23;;;;;;;14.77;13.40;;;;;;;10.24;75.48;99610.44;5075405;28;20250;-81
2024/03/02 03:33:49;;;;;;;15.63;14.13;;;;;;;10.20;75.38;99611.44;5074540;28;20204;-81
2024/03/02 03:36:16;;;;;;;14.00;12.80;;;;;;;10.23;75.36;99603.53;5074932;28;20716;-81
2024/03/02 03:38:42;;;;;;;15.50;14.20;;;;;;;10.20;75.00;99611.44;5074585;28;20222;-80
2024/03/02 03:41:08;;;;;;;17.43;13.47;;;;;;;9.97;75.24;99625.19;5074585;28;20205;-81
2024/03/02 03:43:36;;;;;;;15.20;12.93;;;;;;;9.83;75.48;99622.09;5075848;28;20201;-80
2024/03/02 03:46:03;;;;;;;15.43;13.93;;;;;;;9.83;75.91;99603.88;5075466;28;20723;-80
2024/03/02 03:48:31;;;;;;;13.77;11.77;;;;;;;9.80;76.13;99597.00;5075537;28;20211;-79
2024/03/02 03:50:57;;;;;;;13.93;12.67;;;;;;;9.58;76.80;99591.56;5073426;28;20232;-77
2024/03/02 03:53:24;;;;;;;13.30;12.10;;;;;;;9.50;76.98;99573.53;5074362;28;20212;-80
2024/03/02 03:55:50;;;;;;;12.23;11.13;;;;;;;9.47;76.84;99563.19;5073908;28;20621;-80
2024/03/02 03:58:18;;;;;;;12.30;11.10;;;;;;;9.53;77.06;99556.94;5070162;28;20497;-80
2024/03/02 04:00:45;;;;;;;12.87;11.57;;;;;;;9.45;77.29;99557.16;5074469;28;20208;-80
2024/03/02 04:03:11;;;;;;;13.53;12.27;;;;;;;9.44;77.50;99558.09;5074469;28;20263;-80
2024/03/02 04:05:39;;;;;;;14.33;13.00;;;;;;;9.40;77.05;99550.41;5075056;28;20302;-80
2024/03/02 04:08:06;;;;;;;13.00;11.70;;;;;;;9.38;77.22;99547.00;5074834;28;20218;-80
2024/03/02 04:10:32;;;;;;;14.57;13.03;;;;;;;9.22;77.36;99546.56;5078378;28;20201;-80
2024/03/02 04:12:58;;;;;;;13.87;12.47;;;;;;;9.14;77.30;99550.22;5079187;28;20209;-80
2024/03/02 04:15:25;;;;;;;15.83;14.33;;;;;;;9.06;78.11;99533.97;5077489;28;20228;-77
2024/03/02 04:17:51;;;;;;;14.90;13.60;;;;;;;9.23;77.67;99530.03;5084912;28;20201;-78
2024/03/02 04:20:17;;;;;;;15.37;13.97;;;;;;;9.27;77.46;99532.50;5088044;28;20435;-81
2024/03/02 04:22:45;;;;;;;14.80;13.50;;;;;;;9.17;78.01;99530.22;5078274;28;20650;-80
2024/03/02 04:25:10;;;;;;;15.10;13.80;;;;;;;9.27;78.31;99519.47;5078277;28;20243;-80
2024/03/02 04:27:36;;;;;;;15.07;13.43;;;;;;;9.29;77.84;99522.06;5074077;28;20209;-80
2024/03/02 04:30:04;;;;;;;15.23;13.80;;;;;;;9.33;77.93;99523.66;5078324;28;20193;-80
2024/03/02 04:32:31;;;;;;;15.67;14.23;;;;;;;9.27;77.67;99529.06;5077554;28;20208;-80
2024/03/02 04:34:57;;;;;;;17.90;16.07;;;;;;;9.29;77.84;99524.66;5078719;28;20225;-80
2024/03/02 04:37:23;;;;;;;16.50;14.97;;;;;;;9.23;78.24;99517.03;5078006;28;20204;-80
2024/03/02 04:39:51;;;;;;;17.07;15.57;;;;;;;9.19;78.64;99512.78;5078049;28;20781;-80
2024/03/02 04:42:17;;;;;;;17.87;16.17;;;;;;;9.17;79.20;99493.75;5079238;28;20234;-79
2024/03/02 04:44:44;;;;;;;17.53;15.93;;;;;;;9.22;79.05;99482.31;5077641;28;20231;-80
2024/03/02 04:47:10;;;;;;;18.67;16.87;;;;;;;9.25;79.03;99486.59;5077547;28;20205;-79
2024/03/02 04:49:37;;;;;;;17.10;15.47;;;;;;;9.28;79.13;99481.28;5077475;28;20867;-80
2024/03/02 04:52:03;;;;;;;16.53;14.80;;;;;;;9.24;78.84;99485.72;5076826;28;20575;-80
2024/03/02 04:54:30;;;;;;;16.57;15.07;;;;;;;9.11;78.54;99492.19;5077084;28;20220;-80
2024/03/02 04:56:58;;;;;;;17.20;15.60;;;;;;;8.95;79.29;99491.75;5077245;28;20204;-80
2024/03/02 04:59:24;;;;;;;18.63;16.83;;;;;;;9.22;78.56;99473.66;5072470;28;20251;-77
2024/03/02 05:01:50;;;;;;;20.33;18.33;;;;;;;9.35;78.45;99495.81;5077359;28;20705;-80
2024/03/02 05:04:17;;;;;;;18.80;16.97;;;;;;;9.36;77.97;99502.75;5077562;28;20274;-80
2024/03/02 05:06:44;;;;;;;19.27;17.37;;;;;;;9.44;77.79;99515.56;5077541;28;20274;-80
2024/03/02 05:09:17;;;;;;;17.97;16.27;;;;;;;9.42;77.33;99528.63;5078363;28;20201;-77
2024/03/02 05:14:28;;;;;;;18.47;16.67;;;;;;;9.28;77.59;99531.63;5073977;28;20231;-78
2024/03/02 05:16:55;;;;;;;19.20;16.97;;;;;;;9.27;77.22;99542.06;5073898;28;20205;-79
2024/03/02 05:19:21;;;;;;;18.83;17.03;;;;;;;9.26;77.70;99532.56;5072417;28;20229;-78
2024/03/02 05:21:48;;;;;;;18.60;16.77;;;;;;;9.18;77.84;99534.50;5072771;28;20208;-78
2024/03/02 05:24:14;;;;;;;19.80;17.73;;;;;;;9.09;78.60;99526.06;5072588;28;20370;-79
2024/03/02 05:26:41;;;;;;;21.80;18.90;;;;;;;9.01;78.99;99519.38;5072895;28;20209;-79
2024/03/02 05:29:07;;;;;;;19.60;17.70;;;;;;;8.92;79.35;99510.06;5067051;28;20198;-78
2024/03/02 05:31:35;;;;;;;26.60;19.33;;;;;;;8.90;80.19;99493.63;5072888;28;20205;-78
2024/03/02 05:34:01;;;;;;;21.07;18.67;;;;;;;8.95;79.83;99476.13;5073318;28;20229;-78
2024/03/02 05:36:27;;;;;;;20.70;18.40;;;;;;;8.84;80.33;99478.19;5072594;28;20220;-78
2024/03/02 05:38:54;;;;;;;22.83;19.37;;;;;;;8.87;81.21;99449.47;5072453;28;20753;-78
2024/03/02 05:41:20;;;;;;;24.17;19.03;;;;;;;9.06;80.74;99436.81;5072491;28;20205;-79
2024/03/02 05:43:47;;;;;;;20.23;18.13;;;;;;;9.12;80.28;99437.47;5072421;28;20292;-78
2024/03/02 05:46:13;;;;;;;20.03;16.93;;;;;;;9.04;79.20;99468.09;5072494;28;20230;-79
2024/03/02 05:48:41;;;;;;;20.10;17.20;;;;;;;9.04;79.03;99481.09;5072329;28;20209;-78
2024/03/02 05:51:07;;;;;;;19.57;17.60;;;;;;;9.05;79.51;99480.19;5072763;28;20235;-77
2024/03/02 05:53:33;;;;;;;18.97;17.00;;;;;;;8.84;78.97;99494.66;5072556;28;20744;-78
2024/03/02 05:56:00;;;;;;;17.90;16.10;;;;;;;8.82;79.69;99493.84;5073539;28;20222;-79
2024/03/02 05:58:42;;;;;;;21.83;18.10;;;;;;;8.84;80.84;99478.19;5068012;28;20209;-79
2024/03/02 06:01:09;;;;;;;19.23;17.30;;;;;;;8.93;80.15;99464.91;5073361;28;20209;-79
2024/03/02 06:03:35;;;;;;;19.20;16.83;;;;;;;8.93;79.88;99468.38;5073806;28;20672;-79
2024/03/02 06:06:03;;;;;;;19.47;17.47;;;;;;;8.70;80.28;99479.44;5073760;28;20275;-80
2024/03/02 06:08:30;;;;;;;19.47;17.00;;;;;;;8.57;81.79;99456.38;5073881;28;20218;-80
2024/03/02 06:10:56;;;;;;;19.33;17.57;;;;;;;8.49;82.18;99441.81;5073162;28;20197;-77
2024/03/02 06:13:23;;;;;;;19.40;17.30;;;;;;;8.55;82.61;99428.66;5072976;28;20557;-80
2024/03/02 06:15:49;;;;;;;22.70;19.27;;;;;;;8.42;82.96;99403.84;5073731;28;20282;-80
2024/03/02 06:18:15;;;;;;;20.10;17.03;;;;;;;8.62;82.95;99400.75;5073107;28;20201;-78
2024/03/02 06:20:42;;;;;;;19.10;17.30;;;;;;;8.64;82.64;99403.28;5073141;28;20225;-80
2024/03/02 06:23:10;;;;;;;19.20;17.40;;;;;;;8.65;82.99;99397.19;5073048;28;20703;-80
2024/03/02 06:25:36;;;;;;;20.90;16.87;;;;;;;8.73;83.22;99405.63;5073665;28;20243;-80
2024/03/02 06:28:04;;;;;;;19.37;17.23;;;;;;;8.81;82.53;99410.63;5068235;28;20217;-79
2024/03/02 06:30:30;;;;;;;19.53;17.63;;;;;;;8.73;82.86;99411.69;5072483;28;20208;-79
2024/03/02 06:32:56;;;;;;;20.10;17.53;;;;;;;8.79;82.22;99410.66;5073734;28;20252;-78
2024/03/02 06:35:23;;;;;;;20.83;18.47;;;;;;;8.78;83.18;99413.28;5072805;28;20711;-80
2024/03/02 06:37:49;;;;;;;18.87;16.87;;;;;;;8.80;83.31;99407.19;5072642;28;20301;-79
2024/03/02 06:40:17;;;;;;;22.20;18.83;;;;;;;8.74;83.18;99410.78;5072494;28;20232;-76
2024/03/02 06:42:43;;;;;;;21.27;18.97;;;;;;;8.81;83.35;99406.25;5071745;28;20204;-80
2024/03/02 06:45:10;;;;;;;18.53;16.77;;;;;;;8.90;82.71;99410.34;5072261;28;20220;-77
2024/03/02 06:47:36;;;;;;;18.73;16.93;;;;;;;8.82;82.60;99431.41;5072161;28;20208;-80
2024/03/02 06:50:03;;;;;;;19.23;17.03;;;;;;;8.93;82.85;99425.88;5071419;28;20562;-78
2024/03/02 06:52:29;;;;;;;19.57;17.53;;;;;;;9.03;82.43;99424.72;5072668;28;20204;-78
2024/03/02 06:54:55;;;;;;;18.40;16.63;;;;;;;9.24;81.56;99440.63;5071750;28;20228;-80
2024/03/02 06:57:24;;;;;;;19.30;16.33;;;;;;;9.23;80.96;99452.75;5072338;28;20213;-79
2024/03/02 06:59:53;;;;;;;17.67;15.97;;;;;;;9.31;81.29;99460.34;5069490;28;20228;-79
2024/03/02 07:02:20;;;;;;;18.57;16.53;;;;;;;9.36;81.18;99468.06;5072853;28;20212;-78
2024/03/02 07:04:46;;;;;;;18.17;16.47;;;;;;;9.40;81.08;99465.31;5072210;28;20278;-78
2024/03/02 07:07:13;;;;;;;18.07;16.43;;;;;;;9.41;81.44;99467.00;5072233;28;20216;-79
2024/03/02 07:09:39;;;;;;;18.10;16.20;;;;;;;9.34;82.04;99455.06;5072979;28;20205;-79
2024/03/02 07:12:06;;;;;;;17.90;16.10;;;;;;;9.38;81.80;99455.84;5072372;28;20671;-79
2024/03/02 07:17:17;;;;;;;17.33;15.73;;;;;;;9.39;82.30;99450.56;5071758;28;20207;-77
2024/03/02 07:19:44;;;;;;;18.93;17.10;;;;;;;9.39;82.47;99458.38;5072499;28;20278;-79
2024/03/02 07:22:11;;;;;;;19.63;17.63;;;;;;;9.32;82.04;99462.91;5072116;28;20200;-79
2024/03/02 07:24:41;;;;;;;19.83;17.83;;;;;;;9.49;81.86;99467.66;5072119;28;20229;-77
2024/03/02 07:27:07;;;;;;;20.47;18.17;;;;;;;9.45;81.34;99480.78;5072242;28;20214;-79
2024/03/02 07:29:35;;;;;;;18.90;17.03;;;;;;;9.51;81.30;99488.41;5065501;28;20201;-78
2024/03/02 07:32:01;;;;;;;19.10;17.40;;;;;;;9.51;80.92;99504.03;5071122;28;20205;-78
2024/03/02 07:34:28;;;;;;;19.17;17.30;;;;;;;9.67;80.28;99515.75;5071207;28;20286;-78
2024/03/02 07:36:54;;;;;;;18.07;16.37;;;;;;;9.73;80.01;99528.56;5070668;28;20205;-81
2024/03/02 07:39:20;;;;;;;18.40;16.60;;;;;;;9.79;80.30;99537.97;5069505;28;20282;-77
2024/03/02 07:41:47;;;;;;;19.33;17.17;;;;;;;9.86;79.75;99543.84;5070029;28;20209;-77
2024/03/02 07:44:15;;;;;;;20.20;18.07;;;;;;;9.88;79.76;99557.69;5072739;28;20205;-77
2024/03/02 07:46:42;;;;;;;19.30;17.37;;;;;;;9.81;79.95;99569.16;5074239;28;20574;-77
2024/03/02 07:49:09;;;;;;;18.90;16.97;;;;;;;9.73;79.49;99579.81;5074308;28;20240;-77
2024/03/02 07:51:36;;;;;;;18.50;16.37;;;;;;;9.84;79.94;99579.53;5073476;28;20614;-78
2024/03/02 07:54:02;;;;;;;16.87;15.37;;;;;;;9.96;79.74;99586.13;5074611;28;20201;-77
2024/03/02 07:56:28;;;;;;;18.17;16.40;;;;;;;9.82;80.26;99591.75;5074836;28;20260;-77
2024/03/02 07:58:57;;;;;;;17.10;15.50;;;;;;;9.77;80.08;99578.81;5067554;28;20209;-78
2024/03/02 08:01:23;;;;;;;17.33;15.63;;;;;;;9.81;80.66;99564.84;5074093;28;20311;-78
2024/03/02 08:03:52;;;;;;;18.23;16.27;;;;;;;9.81;80.82;99554.41;5074485;28;20676;-78
2024/03/02 08:06:20;;;;;;;16.50;14.83;;;;;;;9.90;80.83;99559.31;5074626;28;20226;-77
2024/03/02 08:08:47;;;;;;;16.77;15.17;;;;;;;9.85;80.62;99561.25;5073559;28;20209;-77
2024/03/02 08:11:14;;;;;;;16.77;15.27;;;;;;;9.94;80.68;99567.91;5073545;28;20205;-77
2024/03/02 08:13:40;;;;;;;18.20;16.53;;;;;;;10.07;80.41;99563.19;5073249;28;20213;-78
2024/03/02 08:16:09;;;;;;;17.77;15.93;;;;;;;10.10;80.40;99571.75;5073252;28;20282;-77
2024/03/02 08:18:35;;;;;;;16.47;14.87;;;;;;;10.02;80.68;99575.50;5073342;28;20245;-78
2024/03/02 08:21:04;;;;;;;16.67;15.03;;;;;;;10.05;81.03;99558.03;5074336;28;20221;-77
2024/03/02 08:23:31;;;;;;;16.53;13.87;;;;;;;10.43;86.27;99456.00;5072998;28;20674;-77
2024/03/02 08:25:57;;;;;;;16.90;15.07;;;;;;;10.70;88.52;99387.16;5073830;28;20323;-78
2024/03/02 08:28:23;;;;;;;15.03;13.47;;;;;;;10.90;86.35;99386.44;5066630;28;20670;-77
2024/03/02 08:30:50;;;;;;;15.13;13.83;;;;;;;11.02;84.21;99419.06;5074334;28;20231;-78
2024/03/02 08:33:16;;;;;;;16.97;15.27;;;;;;;11.09;80.24;99477.97;5073779;28;20216;-77
2024/03/02 08:35:42;;;;;;;16.70;15.10;;;;;;;11.11;80.41;99549.28;5073445;28;20230;-78
2024/03/02 08:38:10;;;;;;;17.20;15.57;;;;;;;11.11;81.32;99567.56;5074075;28;20202;-78
2024/03/02 08:40:37;;;;;;;18.53;16.93;;;;;;;11.30;81.03;99540.81;5074507;28;20355;-78
2024/03/02 08:43:03;;;;;;;15.93;14.43;;;;;;;11.40;81.23;99559.63;5076074;28;20275;-78
2024/03/02 08:45:30;;;;;;;17.07;15.37;;;;;;;11.67;83.61;99510.69;5076363;28;20225;-78
2024/03/02 08:47:56;;;;;;;16.33;14.93;;;;;;;11.85;81.23;99524.81;5075282;28;20208;-77
2024/03/02 08:50:22;;;;;;;14.83;13.43;;;;;;;11.63;75.17;99650.25;5074903;28;20273;-78
2024/03/02 08:52:49;;;;;;;16.63;15.20;;;;;;;11.39;73.25;99743.44;5075981;28;20218;-77
2024/03/02 08:55:16;;;;;;;16.63;14.97;;;;;;;11.56;73.86;99733.28;5076324;28;20276;-77
2024/03/02 08:57:43;;;;;;;15.63;13.93;;;;;;;11.79;75.66;99755.13;5071674;28;20209;-78
2024/03/02 09:00:10;;;;;;;16.57;14.77;;;;;;;11.92;73.48;99767.75;5072599;28;20250;-78
2024/03/02 09:02:37;;;;;;;16.43;14.93;;;;;;;11.91;71.60;99820.13;5076302;28;20210;-78
2024/03/02 09:05:03;;;;;;;15.57;14.10;;;;;;;11.80;70.87;99875.38;5075759;28;20225;-78
2024/03/02 09:07:30;;;;;;;17.63;15.53;;;;;;;11.81;70.49;99894.53;5074923;28;20750;-78
2024/03/02 09:09:56;;;;;;;15.50;14.10;;;;;;;11.81;70.57;99918.06;5075977;28;20202;-79
2024/03/02 09:12:24;;;;;;;15.97;14.33;;;;;;;11.60;69.57;99937.91;5076047;28;20256;-78
2024/03/02 09:14:50;;;;;;;15.23;13.67;;;;;;;11.69;70.46;99945.44;5075668;28;20853;-76
2024/03/02 09:17:16;;;;;;;14.97;13.67;;;;;;;11.80;70.24;99940.75;5076196;28;20214;-78
2024/03/02 09:19:43;;;;;;;14.23;12.90;;;;;;;11.76;70.05;99960.06;5075734;28;20202;-78
2024/03/02 09:22:09;;;;;;;14.43;13.13;;;;;;;11.67;68.45;99966.44;5075416;28;20229;-78
2024/03/02 09:24:36;;;;;;;15.17;13.57;;;;;;;11.83;68.93;99979.00;5075454;28;20247;-78
2024/03/02 09:27:02;;;;;;;13.83;12.57;;;;;;;11.86;69.55;99971.94;5075766;28;20257;-78
2024/03/02 09:29:30;;;;;;;13.90;12.60;;;;;;;11.55;68.13;99995.53;5068082;28;20210;-78
2024/03/02 09:31:56;;;;;;;13.87;12.67;;;;;;;11.68;68.40;99998.66;5075157;28;20210;-78
2024/03/02 09:34:23;;;;;;;14.97;13.67;;;;;;;11.76;69.18;100001.88;5075396;28;20222;-78
2024/03/02 09:36:51;;;;;;;14.10;12.80;;;;;;;11.79;68.61;100008.78;5075134;28;20234;-77
2024/03/02 09:39:17;;;;;;;12.10;11.10;;;;;;;11.68;67.64;100020.41;5073977;28;20305;-78
2024/03/02 09:41:44;;;;;;;13.20;11.90;;;;;;;11.65;66.91;100030.97;5075290;28;20232;-78
2024/03/02 09:44:11;;;;;;;12.83;11.70;;;;;;;11.85;67.76;100034.72;5074695;28;20284;-78
2024/03/02 09:46:38;;;;;;;12.40;11.40;;;;;;;11.95;68.48;100038.81;5075058;28;20210;-79
2024/03/02 09:49:05;;;;;;;12.13;11.13;;;;;;;11.99;67.97;100031.72;5074778;28;20216;-79
2024/03/02 09:51:32;;;;;;;11.67;10.67;;;;;;;11.99;66.66;100050.03;5074026;28;20210;-78
2024/03/02 09:53:58;;;;;;;12.13;11.03;;;;;;;11.97;65.64;100083.22;5075188;28;20217;-79
2024/03/02 09:56:24;;;;;;;12.17;10.87;;;;;;;12.08;66.64;100073.31;5075101;28;20212;-79
2024/03/02 09:58:51;;;;;;;11.90;10.87;;;;;;;11.94;65.20;100101.66;5066856;28;20208;-79
2024/03/02 10:01:18;;;;;;;12.10;11.00;;;;;;;12.05;66.61;100097.81;5074226;28;20231;-79
2024/03/02 10:03:49;;;;;;;10.87;9.97;;;;;;;11.86;64.92;100120.16;5074104;28;20252;-79
2024/03/02 10:06:23;;;;;;;11.50;10.50;;;;;;;12.15;65.97;100105.34;5072970;28;20231;-79
2024/03/02 10:08:49;;;;;;;10.90;10.00;;;;;;;12.10;65.35;100108.13;5073846;28;20260;-79
2024/03/02 10:11:30;;;;;;;11.23;10.13;;;;;;;12.26;64.98;100108.50;5074477;28;20202;-78
2024/03/02 10:14:07;;;;;;;11.53;10.47;;;;;;;12.26;64.89;100126.81;5073534;28;20207;-77
2024/03/02 10:16:34;;;;;;;10.37;9.50;;;;;;;12.48;65.05;100129.63;5073131;28;20836;-78
2024/03/02 10:19:16;;;;;;;10.37;9.47;;;;;;;12.25;63.40;100151.25;5078826;28;20233;-79
2024/03/02 10:21:42;;;;;;;10.77;9.83;;;;;;;12.13;64.20;100176.06;5073454;28;20277;-79
2024/03/02 10:24:09;;;;;;;10.47;9.57;;;;;;;12.22;64.17;100182.78;5073710;28;20211;-79
2024/03/02 10:26:35;;;;;;;10.27;9.37;;;;;;;12.31;63.74;100190.38;5073257;28;20207;-79
2024/03/02 10:29:02;;;;;;;11.10;10.00;;;;;;;12.38;64.88;100173.56;5065096;28;20274;-79
2024/03/02 10:31:29;;;;;;;10.67;9.77;;;;;;;12.37;63.54;100163.13;5072101;28;20229;-78
2024/03/02 10:33:55;;;;;;;10.40;9.50;;;;;;;12.45;63.25;100187.31;5072252;28;20698;-79
2024/03/02 10:36:25;;;;;;;10.63;9.53;;;;;;;12.47;64.03;100193.38;5071860;28;20229;-79
2024/03/02 10:38:54;;;;;;;9.77;8.50;;;;;;;12.66;64.56;100173.53;5072102;28;20244;-78
2024/03/02 10:41:24;;;;;;;9.60;8.80;;;;;;;12.67;64.15;100170.03;5072761;28;20643;-79
2024/03/02 10:43:55;;;;;;;9.20;8.33;;;;;;;12.62;63.75;100171.91;5071436;28;20707;-79
2024/03/02 10:46:23;;;;;;;9.57;8.67;;;;;;;12.71;63.66;100179.50;5072957;28;20241;-78
2024/03/02 10:48:50;;;;;;;9.47;8.57;;;;;;;12.79;62.61;100181.03;5072512;28;20211;-78
2024/03/02 10:51:16;;;;;;;9.37;8.37;;;;;;;12.83;62.07;100187.88;5072474;28;20575;-78
2024/03/02 10:53:44;;;;;;;9.03;8.23;;;;;;;12.81;62.87;100210.66;5073126;28;20673;-79
2024/03/02 10:56:16;;;;;;;8.50;7.73;;;;;;;12.66;60.84;100238.16;5071892;28;20255;-78
2024/03/02 10:58:42;;;;;;;8.67;7.97;;;;;;;12.84;61.40;100239.34;5063857;28;20207;-79
2024/03/02 11:01:13;;;;;;;8.73;7.93;;;;;;;12.93;62.47;100243.44;5064483;28;20282;-79
2024/03/02 11:03:41;;;;;;;9.13;8.23;;;;;;;12.96;61.89;100228.47;5051918;28;20736;-79
2024/03/02 11:06:10;;;;;;;8.83;8.03;;;;;;;12.97;60.67;100248.53;5051537;28;20239;-79
2024/03/02 11:08:40;;;;;;;8.70;7.70;;;;;;;13.05;60.41;100264.88;5052625;28;20217;-79
2024/03/02 11:11:13;;;;;;;8.47;7.77;;;;;;;13.20;60.59;100265.28;5053256;28;20280;-80
2024/03/02 11:13:48;;;;;;;9.00;8.20;;;;;;;12.78;58.90;100302.41;5052773;28;20274;-79
2024/03/02 11:16:30;;;;;;;9.33;8.53;;;;;;;12.95;59.97;100305.38;5052558;28;20234;-79
2024/03/02 11:18:58;;;;;;;8.27;7.60;;;;;;;13.23;61.21;100286.16;5061045;28;20213;-78
2024/03/02 11:21:26;;;;;;;9.03;8.20;;;;;;;13.39;60.63;100276.06;5061834;28;20232;-78
2024/03/02 11:23:52;;;;;;;9.43;8.63;;;;;;;13.45;59.77;100281.09;5061953;28;20211;-77